Time;durP1;ratioP1;P1;durP2;ratioP2;P2;SDS_P1;SDS_P2;PMS_P1;PMS_P2;Temp;Humidity;BMP_temperature;BMP_pressure;BME280_temperature;BME280_humidity;BME280_pressure;Samples;Min_cycle;Max_cycle;Signal;HPM_P1;HPM_P2
2021/10/08 00:00:49;;;;;;;33.53;19.23;;;;;;;;;;4990497;28;20149;-67
2021/10/08 00:03:15;;;;;;;30.20;20.75;;;;;;;;;;5004692;28;20026;-67
2021/10/08 00:05:42;;;;;;;31.58;21.30;;;;;;;;;;4989697;28;20030;-67
2021/10/08 00:08:08;;;;;;;34.05;22.70;;;;;;;;;;5010325;28;20129;-67
2021/10/08 00:10:34;;;;;;;34.90;21.98;;;;;;;;;;4989466;28;20410;-67
2021/10/08 00:13:00;;;;;;;32.60;21.38;;;;;;;;;;5004355;28;20399;-67
2021/10/08 00:15:26;;;;;;;32.03;21.02;;;;;;;;;;4989033;28;20798;-67
2021/10/08 00:17:52;;;;;;;35.85;22.27;;;;;;;;;;4990678;28;20030;-67
2021/10/08 00:20:19;;;;;;;34.42;21.13;;;;;;;;;;4988678;28;20030;-67
2021/10/08 00:22:46;;;;;;;34.55;22.55;;;;;;;;;;4992909;28;20469;-67
2021/10/08 00:25:12;;;;;;;34.05;21.58;;;;;;;;;;5000504;28;20089;-66
2021/10/08 00:27:38;;;;;;;37.53;22.40;;;;;;;;;;4998619;28;20034;-67
2021/10/08 00:30:05;;;;;;;39.30;22.02;;;;;;;;;;4993534;28;20033;-67
2021/10/08 00:32:31;;;;;;;35.85;21.35;;;;;;;;;;5007276;28;20117;-67
2021/10/08 00:34:57;;;;;;;33.15;20.40;;;;;;;;;;4993904;28;20442;-66
2021/10/08 00:37:23;;;;;;;39.05;22.85;;;;;;;;;;4996861;28;20066;-67
2021/10/08 00:39:49;;;;;;;35.95;22.23;;;;;;;;;;5001185;28;20030;-67
2021/10/08 00:42:19;;;;;;;31.88;20.15;;;;;;;;;;5012246;28;20368;-67
2021/10/08 00:44:45;;;;;;;32.28;21.17;;;;;;;;;;4997478;28;20021;-67
2021/10/08 00:47:13;;;;;;;36.13;21.38;;;;;;;;;;4995032;28;20034;-67
2021/10/08 00:49:39;;;;;;;35.53;22.35;;;;;;;;;;5014252;28;20031;-67
2021/10/08 00:52:05;;;;;;;30.58;19.70;;;;;;;;;;5015501;28;20461;-67
2021/10/08 00:54:31;;;;;;;32.45;21.95;;;;;;;;;;4996440;28;20080;-67
2021/10/08 00:57:00;;;;;;;34.95;21.75;;;;;;;;;;5008912;28;20030;-67
2021/10/08 00:59:29;;;;;;;33.80;20.83;;;;;;;;;;5010859;28;20026;-66
2021/10/08 01:01:56;;;;;;;34.60;22.77;;;;;;;;;;4998901;28;20026;-67
2021/10/08 01:04:24;;;;;;;37.63;22.25;;;;;;;;;;4991770;28;20048;-67
2021/10/08 01:06:50;;;;;;;37.17;23.00;;;;;;;;;;4992541;28;20035;-67
2021/10/08 01:09:16;;;;;;;34.78;22.58;;;;;;;;;;4992541;28;20089;-67
2021/10/08 01:11:44;;;;;;;37.22;23.67;;;;;;;;;;5010221;28;20502;-67
2021/10/08 01:14:10;;;;;;;36.42;23.73;;;;;;;;;;5007874;28;20034;-67
2021/10/08 01:16:36;;;;;;;35.20;23.20;;;;;;;;;;5004206;28;20034;-67
2021/10/08 01:19:02;;;;;;;37.67;23.80;;;;;;;;;;4993797;28;20504;-67
2021/10/08 01:21:28;;;;;;;36.10;23.20;;;;;;;;;;5008508;28;20446;-66
2021/10/08 01:23:54;;;;;;;37.17;23.35;;;;;;;;;;5008324;28;20042;-67
2021/10/08 01:26:20;;;;;;;39.08;23.75;;;;;;;;;;4993580;28;20037;-67
2021/10/08 01:28:46;;;;;;;36.22;23.45;;;;;;;;;;5006218;28;20038;-67
2021/10/08 01:31:12;;;;;;;36.47;22.85;;;;;;;;;;4994148;28;20026;-66
2021/10/08 01:33:38;;;;;;;34.47;22.55;;;;;;;;;;4996422;28;20604;-67
2021/10/08 01:36:04;;;;;;;35.28;21.58;;;;;;;;;;4996922;28;20197;-67
2021/10/08 01:38:30;;;;;;;35.20;21.73;;;;;;;;;;4994201;28;20030;-67
2021/10/08 01:40:56;;;;;;;35.40;21.17;;;;;;;;;;4993437;28;20041;-67
2021/10/08 01:43:22;;;;;;;35.25;22.40;;;;;;;;;;4991957;28;20054;-67
2021/10/08 01:45:48;;;;;;;32.42;22.23;;;;;;;;;;5008357;28;20038;-66
2021/10/08 01:48:15;;;;;;;38.35;22.40;;;;;;;;;;4992267;28;20490;-67
2021/10/08 01:50:41;;;;;;;36.22;22.90;;;;;;;;;;4998062;28;20034;-67
2021/10/08 01:53:08;;;;;;;36.47;22.77;;;;;;;;;;4994611;28;20061;-67
2021/10/08 01:55:35;;;;;;;35.05;20.90;;;;;;;;;;4993354;28;20445;-67
2021/10/08 01:58:01;;;;;;;32.80;21.95;;;;;;;;;;4996362;28;20069;-67
2021/10/08 02:00:27;;;;;;;31.23;20.52;;;;;;;;;;5007236;28;20391;-67
2021/10/08 02:02:53;;;;;;;33.75;21.20;;;;;;;;;;4995217;28;20073;-67
2021/10/08 02:05:19;;;;;;;33.63;20.55;;;;;;;;;;5009417;28;20042;-67
2021/10/08 02:07:47;;;;;;;35.60;20.20;;;;;;;;;;5007544;28;20053;-66
2021/10/08 02:10:13;;;;;;;33.67;20.98;;;;;;;;;;4992473;28;20490;-67
2021/10/08 02:12:40;;;;;;;31.73;20.98;;;;;;;;;;4994736;28;20034;-67
2021/10/08 02:15:06;;;;;;;32.92;19.92;;;;;;;;;;4995400;28;20040;-67
2021/10/08 02:17:32;;;;;;;24.48;17.83;;;;;;;;;;4996972;28;20088;-67
2021/10/08 02:19:58;;;;;;;31.58;19.52;;;;;;;;;;4990516;28;21024;-67
2021/10/08 02:22:24;;;;;;;30.20;20.95;;;;;;;;;;4997070;28;20034;-66
2021/10/08 02:24:50;;;;;;;32.17;20.77;;;;;;;;;;5008089;28;20380;-67
2021/10/08 02:27:16;;;;;;;25.33;18.35;;;;;;;;;;4992938;28;20410;-67
2021/10/08 02:29:42;;;;;;;30.98;19.45;;;;;;;;;;4997516;28;20028;-67
2021/10/08 02:32:08;;;;;;;28.85;18.48;;;;;;;;;;4993296;28;20022;-67
2021/10/08 02:34:34;;;;;;;27.48;19.48;;;;;;;;;;4992295;28;20022;-66
2021/10/08 02:37:00;;;;;;;27.85;17.75;;;;;;;;;;4990785;28;20034;-67
2021/10/08 02:39:26;;;;;;;30.55;18.67;;;;;;;;;;5000993;28;20021;-67
2021/10/08 02:41:52;;;;;;;28.98;18.88;;;;;;;;;;5008324;28;20533;-67
2021/10/08 02:44:18;;;;;;;27.00;18.13;;;;;;;;;;4997188;28;20663;-67
2021/10/08 02:46:44;;;;;;;28.10;19.55;;;;;;;;;;5011501;28;20042;-66
2021/10/08 02:49:11;;;;;;;31.40;18.55;;;;;;;;;;5005849;28;20018;-66
2021/10/08 02:51:37;;;;;;;29.65;18.58;;;;;;;;;;4995786;28;20030;-67
2021/10/08 02:54:03;;;;;;;27.98;18.50;;;;;;;;;;4991230;28;20030;-67
2021/10/08 02:56:29;;;;;;;26.73;17.58;;;;;;;;;;4999953;28;20027;-67
2021/10/08 02:58:55;;;;;;;24.90;15.98;;;;;;;;;;4990290;28;20049;-67
2021/10/08 03:01:21;;;;;;;25.55;17.23;;;;;;;;;;4999421;28;20495;-67
2021/10/08 03:03:47;;;;;;;26.35;17.30;;;;;;;;;;4994336;28;20050;-67
2021/10/08 03:06:13;;;;;;;26.27;16.52;;;;;;;;;;4991069;28;20435;-67
2021/10/08 03:08:39;;;;;;;25.30;17.70;;;;;;;;;;4994079;28;20029;-67
2021/10/08 03:11:05;;;;;;;26.73;15.63;;;;;;;;;;4994237;28;20077;-67
2021/10/08 03:13:31;;;;;;;24.13;15.05;;;;;;;;;;4990706;28;20032;-67
2021/10/08 03:15:58;;;;;;;27.23;17.25;;;;;;;;;;4993360;28;20022;-67
2021/10/08 03:18:24;;;;;;;27.52;16.98;;;;;;;;;;5010695;28;20062;-67
2021/10/08 03:20:50;;;;;;;28.05;17.60;;;;;;;;;;4994545;28;20549;-67
2021/10/08 03:23:16;;;;;;;23.80;15.43;;;;;;;;;;4990825;28;20037;-67
2021/10/08 03:25:42;;;;;;;25.13;16.52;;;;;;;;;;4990607;28;20029;-67
2021/10/08 03:28:09;;;;;;;27.15;16.42;;;;;;;;;;4990700;28;20102;-67
2021/10/08 03:30:35;;;;;;;28.85;16.00;;;;;;;;;;4991158;28;20050;-67
2021/10/08 03:33:01;;;;;;;25.17;16.70;;;;;;;;;;5006902;28;20030;-67
2021/10/08 03:35:27;;;;;;;25.17;16.50;;;;;;;;;;4990245;28;20523;-67
2021/10/08 03:38:14;;;;;;;23.58;15.43;;;;;;;;;;4994388;28;20368;-66
2021/10/08 03:40:42;;;;;;;22.65;15.98;;;;;;;;;;4990514;28;20026;-67
2021/10/08 03:43:11;;;;;;;27.55;16.75;;;;;;;;;;5005068;28;21180;-67
2021/10/08 03:45:47;;;;;;;23.15;16.33;;;;;;;;;;4988154;28;20484;-67
2021/10/08 03:50:58;;;;;;;24.33;14.88;;;;;;;;;;4991653;28;20034;-67
2021/10/08 03:53:24;;;;;;;26.73;15.73;;;;;;;;;;4990796;28;20109;-67
2021/10/08 03:55:50;;;;;;;27.70;15.68;;;;;;;;;;5007160;28;20030;-67
2021/10/08 03:58:16;;;;;;;25.88;16.17;;;;;;;;;;4993989;28;20629;-67
2021/10/08 04:00:42;;;;;;;25.75;16.08;;;;;;;;;;4995318;28;20026;-67
2021/10/08 04:03:08;;;;;;;23.85;15.93;;;;;;;;;;5010110;28;20046;-67
2021/10/08 04:05:34;;;;;;;27.30;16.38;;;;;;;;;;5007862;28;20108;-66
2021/10/08 04:08:00;;;;;;;23.80;15.98;;;;;;;;;;4994478;28;20030;-66
2021/10/08 04:10:27;;;;;;;27.55;16.83;;;;;;;;;;4994375;28;20073;-67
2021/10/08 04:12:53;;;;;;;24.90;15.85;;;;;;;;;;4996985;28;20056;-66
2021/10/08 04:15:19;;;;;;;24.60;16.13;;;;;;;;;;4994435;28;20037;-67
2021/10/08 04:17:45;;;;;;;25.42;15.48;;;;;;;;;;4999480;28;20077;-67
2021/10/08 04:20:11;;;;;;;26.33;14.65;;;;;;;;;;4999122;28;20031;-66
2021/10/08 04:22:37;;;;;;;24.23;16.02;;;;;;;;;;4996315;28;20486;-67
2021/10/08 04:25:04;;;;;;;25.13;15.85;;;;;;;;;;4994529;28;20048;-67
2021/10/08 04:27:30;;;;;;;23.60;15.95;;;;;;;;;;4996217;28;20379;-67
2021/10/08 04:29:56;;;;;;;29.42;16.05;;;;;;;;;;4998222;28;20403;-67
2021/10/08 04:32:22;;;;;;;24.25;14.65;;;;;;;;;;4992004;28;20398;-67
2021/10/08 04:34:48;;;;;;;24.38;15.52;;;;;;;;;;5008069;28;20041;-67
2021/10/08 04:37:14;;;;;;;25.52;15.80;;;;;;;;;;5007403;28;20038;-66
2021/10/08 04:39:40;;;;;;;26.60;15.55;;;;;;;;;;5010200;28;20027;-66
2021/10/08 04:42:06;;;;;;;33.47;15.85;;;;;;;;;;5008322;28;20125;-67
2021/10/08 04:44:33;;;;;;;29.63;15.80;;;;;;;;;;4994772;28;20022;-67
2021/10/08 04:46:59;;;;;;;27.85;15.10;;;;;;;;;;5000451;28;20380;-67
2021/10/08 04:49:26;;;;;;;22.92;14.10;;;;;;;;;;4989201;28;20038;-67
2021/10/08 04:51:52;;;;;;;25.20;16.13;;;;;;;;;;4992456;28;20041;-67
2021/10/08 04:54:18;;;;;;;25.30;15.30;;;;;;;;;;4993705;28;20026;-67
2021/10/08 04:56:44;;;;;;;25.20;15.15;;;;;;;;;;4994292;28;20026;-67
2021/10/08 04:59:10;;;;;;;26.83;15.13;;;;;;;;;;4992933;28;20079;-67
2021/10/08 05:01:36;;;;;;;24.00;14.35;;;;;;;;;;4994859;28;20029;-67
2021/10/08 05:04:02;;;;;;;27.20;14.65;;;;;;;;;;4991946;28;20479;-67
2021/10/08 05:06:28;;;;;;;24.55;15.10;;;;;;;;;;4994052;28;20494;-67
2021/10/08 05:08:54;;;;;;;26.40;15.57;;;;;;;;;;4996095;28;20568;-66
2021/10/08 05:11:20;;;;;;;23.65;15.35;;;;;;;;;;4995746;28;20056;-67
2021/10/08 05:13:46;;;;;;;26.15;15.70;;;;;;;;;;4990978;28;20026;-67
2021/10/08 05:16:12;;;;;;;22.70;14.77;;;;;;;;;;4993123;28;20037;-67
2021/10/08 05:18:38;;;;;;;26.02;15.75;;;;;;;;;;5008058;28;20061;-67
2021/10/08 05:21:04;;;;;;;25.30;15.20;;;;;;;;;;4990488;28;20019;-67
2021/10/08 05:23:30;;;;;;;26.35;15.82;;;;;;;;;;5003934;28;20031;-67
2021/10/08 05:25:56;;;;;;;25.38;15.50;;;;;;;;;;4999857;28;20034;-67
2021/10/08 05:28:22;;;;;;;27.83;16.45;;;;;;;;;;5079720;22;20433;-69
2021/10/08 05:30:49;;;;;;;28.95;17.17;;;;;;;;;;4975525;28;20041;-70
2021/10/08 05:33:15;;;;;;;37.20;17.88;;;;;;;;;;4977391;28;20035;-69
2021/10/08 05:35:41;;;;;;;27.25;16.45;;;;;;;;;;4973092;28;20030;-69
2021/10/08 05:38:07;;;;;;;31.08;17.58;;;;;;;;;;4968471;28;20042;-69
2021/10/08 05:40:33;;;;;;;28.77;17.08;;;;;;;;;;4969931;28;20026;-69
2021/10/08 05:43:00;;;;;;;28.35;17.13;;;;;;;;;;4970524;28;20022;-69
2021/10/08 05:45:26;;;;;;;29.05;16.58;;;;;;;;;;4963756;28;20038;-69
2021/10/08 05:47:52;;;;;;;31.40;17.70;;;;;;;;;;4962334;23;20475;-67
2021/10/08 05:50:18;;;;;;;29.83;18.52;;;;;;;;;;4951883;28;20391;-67
2021/10/08 05:52:44;;;;;;;33.15;18.73;;;;;;;;;;5024102;23;20436;-67
2021/10/08 05:55:10;;;;;;;36.75;18.33;;;;;;;;;;4977552;28;20105;-67
2021/10/08 05:57:37;;;;;;;35.45;18.73;;;;;;;;;;4966502;28;20022;-67
2021/10/08 06:00:04;;;;;;;33.45;18.83;;;;;;;;;;4967313;28;20019;-67
2021/10/08 06:02:30;;;;;;;33.65;20.08;;;;;;;;;;4978134;28;20050;-67
2021/10/08 06:04:56;;;;;;;39.30;20.15;;;;;;;;;;4972105;28;20045;-67
2021/10/08 06:07:22;;;;;;;36.78;20.08;;;;;;;;;;4965816;28;20213;-67
2021/10/08 06:09:48;;;;;;;40.88;20.58;;;;;;;;;;4978763;28;20030;-67
2021/10/08 06:12:15;;;;;;;33.38;19.73;;;;;;;;;;4963257;28;20035;-67
2021/10/08 06:14:41;;;;;;;40.22;20.92;;;;;;;;;;4978070;28;20400;-67
2021/10/08 06:17:07;;;;;;;40.67;22.63;;;;;;;;;;4972845;28;20692;-67
2021/10/08 06:19:33;;;;;;;42.70;23.00;;;;;;;;;;4970980;28;20019;-67
2021/10/08 06:21:59;;;;;;;46.47;22.85;;;;;;;;;;4970090;28;20061;-67
2021/10/08 06:24:25;;;;;;;44.03;23.35;;;;;;;;;;4978716;28;20026;-67
2021/10/08 06:26:51;;;;;;;40.83;23.10;;;;;;;;;;4976936;28;20022;-67
2021/10/08 06:29:17;;;;;;;43.35;24.13;;;;;;;;;;4970563;28;20113;-67
2021/10/08 06:31:45;;;;;;;41.90;23.38;;;;;;;;;;4981877;28;20030;-67
2021/10/08 06:34:11;;;;;;;45.80;25.30;;;;;;;;;;4970192;28;20444;-67
2021/10/08 06:36:37;;;;;;;48.70;26.50;;;;;;;;;;4972011;28;20038;-67
2021/10/08 06:39:03;;;;;;;47.42;25.33;;;;;;;;;;4966630;28;20023;-67
2021/10/08 06:41:29;;;;;;;56.08;28.98;;;;;;;;;;4977527;28;20482;-67
2021/10/08 06:43:55;;;;;;;74.47;32.85;;;;;;;;;;4980126;28;20103;-67
2021/10/08 06:46:22;;;;;;;61.95;31.35;;;;;;;;;;4973267;28;20042;-67
2021/10/08 06:48:48;;;;;;;61.67;30.30;;;;;;;;;;4974589;28;20041;-67
2021/10/08 06:51:14;;;;;;;59.17;31.35;;;;;;;;;;4980614;28;20035;-67
2021/10/08 06:53:40;;;;;;;63.65;31.60;;;;;;;;;;4972708;28;20031;-67
2021/10/08 06:56:07;;;;;;;96.18;37.80;;;;;;;;;;4969912;28;20027;-67
2021/10/08 06:58:33;;;;;;;73.43;33.80;;;;;;;;;;4977931;28;20065;-67
2021/10/08 07:00:59;;;;;;;78.25;36.30;;;;;;;;;;4973007;28;20021;-67
2021/10/08 07:03:26;;;;;;;76.47;38.95;;;;;;;;;;4975701;28;20113;-67
2021/10/08 07:05:52;;;;;;;92.00;44.13;;;;;;;;;;4966559;28;20114;-67
2021/10/08 07:08:18;;;;;;;77.32;42.53;;;;;;;;;;4968794;28;20030;-67
2021/10/08 07:10:44;;;;;;;78.45;43.72;;;;;;;;;;4971408;28;20085;-67
2021/10/08 07:13:10;;;;;;;84.93;46.28;;;;;;;;;;4969973;28;20401;-67
2021/10/08 07:15:37;;;;;;;82.93;46.13;;;;;;;;;;4973314;28;20114;-67
2021/10/08 07:18:04;;;;;;;91.88;47.03;;;;;;;;;;4969735;28;20034;-67
2021/10/08 07:20:30;;;;;;;94.50;46.90;;;;;;;;;;4974181;28;20022;-67
2021/10/08 07:22:57;;;;;;;104.70;51.10;;;;;;;;;;4974001;28;21462;-67
2021/10/08 07:25:27;;;;;;;109.63;51.65;;;;;;;;;;4974388;28;20096;-67
2021/10/08 07:27:54;;;;;;;99.47;49.75;;;;;;;;;;4971378;28;20042;-67
2021/10/08 07:30:20;;;;;;;112.88;53.83;;;;;;;;;;4972258;28;21435;-67
2021/10/08 07:32:46;;;;;;;109.45;54.13;;;;;;;;;;4973442;28;20037;-67
2021/10/08 07:35:13;;;;;;;116.13;55.78;;;;;;;;;;4970754;28;20122;-67
2021/10/08 07:37:39;;;;;;;125.65;59.78;;;;;;;;;;4973810;28;20026;-67
2021/10/08 07:40:06;;;;;;;131.60;59.63;;;;;;;;;;4964719;28;20030;-67
2021/10/08 07:42:34;;;;;;;129.25;60.70;;;;;;;;;;4971197;28;20019;-67
2021/10/08 07:45:01;;;;;;;129.80;62.92;;;;;;;;;;4969200;28;20023;-67
2021/10/08 07:47:27;;;;;;;117.03;56.55;;;;;;;;;;4970477;28;20034;-67
2021/10/08 07:49:53;;;;;;;120.97;60.53;;;;;;;;;;4969762;28;20034;-67
2021/10/08 07:52:19;;;;;;;129.90;63.15;;;;;;;;;;4972234;28;20049;-67
2021/10/08 07:54:45;;;;;;;125.10;61.75;;;;;;;;;;4966990;28;20027;-67
2021/10/08 07:57:11;;;;;;;131.00;64.65;;;;;;;;;;4971513;28;20030;-67
2021/10/08 07:59:37;;;;;;;135.18;66.00;;;;;;;;;;4974140;28;20046;-67
2021/10/08 08:02:03;;;;;;;133.88;66.07;;;;;;;;;;4963709;28;20028;-67
2021/10/08 08:04:30;;;;;;;137.60;66.90;;;;;;;;;;4972586;28;20018;-67
2021/10/08 08:06:56;;;;;;;151.35;71.03;;;;;;;;;;4969485;28;20081;-67
2021/10/08 08:09:22;;;;;;;143.85;74.22;;;;;;;;;;4968081;28;20041;-67
2021/10/08 08:11:48;;;;;;;156.68;74.22;;;;;;;;;;4976500;28;20453;-67
2021/10/08 08:14:14;;;;;;;145.10;74.25;;;;;;;;;;4971856;28;20066;-67
2021/10/08 08:16:40;;;;;;;149.27;73.43;;;;;;;;;;4972704;28;20236;-67
2021/10/08 08:19:08;;;;;;;167.70;78.10;;;;;;;;;;4966589;28;20039;-67
2021/10/08 08:21:34;;;;;;;155.20;77.65;;;;;;;;;;4970868;28;20019;-67
2021/10/08 08:24:00;;;;;;;160.45;79.68;;;;;;;;;;4970529;28;20034;-67
2021/10/08 08:26:26;;;;;;;166.63;78.28;;;;;;;;;;4972467;28;20031;-67
2021/10/08 08:28:52;;;;;;;164.65;80.40;;;;;;;;;;4971725;28;20034;-67
2021/10/08 08:31:18;;;;;;;168.55;86.05;;;;;;;;;;4967570;28;20139;-67
2021/10/08 08:33:44;;;;;;;157.25;78.72;;;;;;;;;;4969854;28;20042;-67
2021/10/08 08:36:11;;;;;;;159.40;80.07;;;;;;;;;;4970998;28;20026;-67
2021/10/08 08:38:37;;;;;;;160.95;81.45;;;;;;;;;;4971783;28;20066;-67
2021/10/08 08:41:03;;;;;;;152.90;80.03;;;;;;;;;;4975661;28;20026;-67
2021/10/08 08:43:29;;;;;;;158.88;82.68;;;;;;;;;;4971193;28;20046;-67
2021/10/08 08:45:56;;;;;;;147.73;81.70;;;;;;;;;;4975345;28;20031;-67
2021/10/08 08:48:23;;;;;;;152.65;77.90;;;;;;;;;;4978198;28;20086;-68
2021/10/08 08:50:49;;;;;;;143.80;75.53;;;;;;;;;;4972924;28;20103;-68
2021/10/08 08:53:17;;;;;;;141.95;80.07;;;;;;;;;;4971283;28;20050;-67
2021/10/08 08:55:43;;;;;;;133.98;75.80;;;;;;;;;;4972472;28;20026;-67
2021/10/08 08:58:09;;;;;;;137.07;74.38;;;;;;;;;;4971551;28;20563;-67
2021/10/08 09:00:35;;;;;;;127.47;73.25;;;;;;;;;;4971955;28;20023;-67
2021/10/08 09:03:03;;;;;;;125.53;67.45;;;;;;;;;;4973658;28;20029;-67
2021/10/08 09:05:33;;;;;;;107.35;63.13;;;;;;;;;;4972838;28;20065;-67
2021/10/08 09:08:04;;;;;;;108.82;63.55;;;;;;;;;;4971109;28;20027;-67
2021/10/08 09:10:30;;;;;;;94.65;57.30;;;;;;;;;;4974956;28;20027;-67
2021/10/08 09:12:57;;;;;;;88.43;54.97;;;;;;;;;;4972458;28;20137;-67
2021/10/08 09:15:24;;;;;;;88.50;53.47;;;;;;;;;;4973559;28;20482;-66
2021/10/08 09:18:04;;;;;;;89.60;52.53;;;;;;;;;;4977420;28;20023;-67
2021/10/08 09:20:31;;;;;;;83.20;51.78;;;;;;;;;;4978333;28;20507;-67
2021/10/08 09:22:57;;;;;;;88.60;50.65;;;;;;;;;;4975766;28;20098;-67
2021/10/08 09:25:31;;;;;;;81.88;49.20;;;;;;;;;;4971761;28;20031;-67
2021/10/08 09:28:01;;;;;;;80.40;46.60;;;;;;;;;;4969622;28;20396;-67
2021/10/08 09:30:28;;;;;;;75.28;46.20;;;;;;;;;;4972371;28;20038;-66
2021/10/08 09:32:55;;;;;;;72.10;44.33;;;;;;;;;;4974974;28;20026;-66
2021/10/08 09:35:23;;;;;;;68.75;41.28;;;;;;;;;;4979657;28;20054;-67
2021/10/08 09:37:54;;;;;;;69.60;43.28;;;;;;;;;;4966826;28;20037;-67
2021/10/08 09:40:23;;;;;;;62.53;38.85;;;;;;;;;;4976164;28;20411;-67
2021/10/08 09:42:49;;;;;;;65.03;38.00;;;;;;;;;;4987243;28;20167;-67
2021/10/08 09:45:15;;;;;;;60.95;36.05;;;;;;;;;;4976416;28;20125;-67
2021/10/08 09:47:57;;;;;;;57.50;34.85;;;;;;;;;;4968830;28;20027;-67
2021/10/08 09:50:23;;;;;;;58.78;32.85;;;;;;;;;;4961856;28;20318;-67
2021/10/08 09:52:49;;;;;;;56.72;33.15;;;;;;;;;;4972509;28;20047;-67
2021/10/08 09:55:16;;;;;;;52.95;31.02;;;;;;;;;;4972417;28;20082;-67
2021/10/08 09:57:48;;;;;;;54.90;30.33;;;;;;;;;;4973249;28;20022;-68
2021/10/08 10:00:37;;;;;;;55.25;33.22;;;;;;;;;;4984716;28;20398;-68
2021/10/08 10:03:04;;;;;;;55.05;34.85;;;;;;;;;;4961872;28;20031;-68
2021/10/08 10:05:30;;;;;;;55.78;35.30;;;;;;;;;;4964023;28;20031;-68
2021/10/08 10:07:57;;;;;;;60.33;35.85;;;;;;;;;;4961849;28;20206;-68
2021/10/08 10:10:23;;;;;;;64.30;35.67;;;;;;;;;;4964665;28;20023;-68
2021/10/08 10:12:50;;;;;;;61.55;37.92;;;;;;;;;;4961417;28;20027;-68
2021/10/08 10:15:17;;;;;;;64.00;38.97;;;;;;;;;;4971647;28;20493;-68
2021/10/08 10:17:43;;;;;;;53.67;35.10;;;;;;;;;;4966809;28;20070;-68
2021/10/08 10:20:11;;;;;;;56.92;33.03;;;;;;;;;;4970364;28;20027;-68
2021/10/08 10:22:37;;;;;;;51.83;32.60;;;;;;;;;;4974550;28;20039;-68
2021/10/08 10:25:04;;;;;;;58.03;33.80;;;;;;;;;;4969719;28;20030;-68
2021/10/08 10:27:30;;;;;;;52.50;30.75;;;;;;;;;;4969058;28;20050;-67
2021/10/08 10:29:57;;;;;;;51.80;31.73;;;;;;;;;;4978481;28;20022;-67
2021/10/08 10:32:23;;;;;;;49.15;28.52;;;;;;;;;;4976065;28;20027;-68
2021/10/08 10:34:50;;;;;;;54.55;32.80;;;;;;;;;;4969177;28;20046;-68
2021/10/08 10:37:34;;;;;;;48.65;29.27;;;;;;;;;;4983879;28;20027;-68
2021/10/08 10:40:19;;;;;;;50.83;30.10;;;;;;;;;;4968450;28;20030;-68
2021/10/08 10:42:46;;;;;;;51.35;27.92;;;;;;;;;;4971624;28;20493;-67
2021/10/08 10:45:17;;;;;;;48.00;28.08;;;;;;;;;;4968931;28;20118;-67
2021/10/08 10:47:46;;;;;;;40.25;25.60;;;;;;;;;;4968029;28;20030;-67
2021/10/08 10:50:21;;;;;;;40.88;25.92;;;;;;;;;;4965748;28;20035;-67
2021/10/08 10:53:01;;;;;;;45.13;26.52;;;;;;;;;;4972404;28;20090;-67
2021/10/08 10:55:32;;;;;;;46.33;27.73;;;;;;;;;;4965135;28;20029;-67
2021/10/08 10:58:02;;;;;;;45.37;25.33;;;;;;;;;;4971392;28;20121;-67
2021/10/08 11:00:33;;;;;;;45.10;26.58;;;;;;;;;;4970106;28;20272;-67
2021/10/08 11:03:25;;;;;;;47.33;24.73;;;;;;;;;;4971736;28;20054;-67
2021/10/08 11:05:51;;;;;;;;;;;;;;;;;;4972523;28;20280;-68
2021/10/08 11:08:18;;;;;;;41.83;23.80;;;;;;;;;;4988651;28;19937;-68
2021/10/08 11:10:47;;;;;;;51.90;23.95;;;;;;;;;;4970405;28;20096;-68
2021/10/08 11:13:29;;;;;;;41.58;24.17;;;;;;;;;;4968306;28;20027;-68
2021/10/08 11:15:57;;;;;;;43.95;25.90;;;;;;;;;;4964649;28;20138;-68
2021/10/08 11:18:41;;;;;;;36.53;23.35;;;;;;;;;;4967430;28;20102;-68
2021/10/08 11:21:08;;;;;;;37.17;21.10;;;;;;;;;;4970381;28;20026;-68
2021/10/08 11:23:38;;;;;;;35.63;22.27;;;;;;;;;;4970479;28;20026;-68
2021/10/08 11:26:04;;;;;;;41.75;22.85;;;;;;;;;;4960927;28;20563;-68
2021/10/08 11:28:33;;;;;;;41.10;22.27;;;;;;;;;;4969331;28;20335;-68
2021/10/08 11:30:59;;;;;;;39.15;22.15;;;;;;;;;;4966574;28;20506;-67
2021/10/08 11:33:33;;;;;;;40.60;24.58;;;;;;;;;;4971672;28;20035;-68
2021/10/08 11:35:59;;;;;;;39.03;23.52;;;;;;;;;;4969117;28;20045;-68
2021/10/08 11:38:25;;;;;;;42.17;24.00;;;;;;;;;;4957502;28;20264;-67
2021/10/08 11:40:52;;;;;;;44.65;23.98;;;;;;;;;;4966271;28;20430;-68
2021/10/08 11:43:23;;;;;;;43.40;25.48;;;;;;;;;;4969053;28;20031;-68
2021/10/08 11:45:53;;;;;;;48.28;28.25;;;;;;;;;;4968457;28;20037;-68
2021/10/08 11:48:28;;;;;;;40.92;28.27;;;;;;;;;;4959231;28;20121;-68
2021/10/08 11:51:04;;;;;;;49.47;29.90;;;;;;;;;;4974143;28;20034;-68
2021/10/08 11:53:43;;;;;;;47.70;29.10;;;;;;;;;;4971545;28;20090;-68
2021/10/08 11:56:12;;;;;;;45.15;26.10;;;;;;;;;;4961693;28;20030;-68
2021/10/08 11:58:38;;;;;;;42.25;24.75;;;;;;;;;;4966202;28;20552;-68
2021/10/08 12:01:04;;;;;;;40.60;24.77;;;;;;;;;;4975449;28;20038;-68
2021/10/08 12:03:39;;;;;;;38.78;25.33;;;;;;;;;;4974431;28;20362;-68
2021/10/08 12:06:06;;;;;;;41.15;24.40;;;;;;;;;;4963894;28;20030;-68
2021/10/08 12:08:37;;;;;;;44.00;26.73;;;;;;;;;;4964401;28;20064;-68
2021/10/08 12:11:20;;;;;;;41.35;25.88;;;;;;;;;;4972254;28;20018;-68
2021/10/08 12:13:52;;;;;;;40.38;25.15;;;;;;;;;;4967699;28;20035;-68
2021/10/08 12:16:20;;;;;;;37.38;25.15;;;;;;;;;;4970669;28;20089;-68
2021/10/08 12:18:58;;;;;;;41.38;25.10;;;;;;;;;;4967278;28;20393;-69
2021/10/08 12:21:25;;;;;;;39.17;24.90;;;;;;;;;;4965631;28;20027;-68
2021/10/08 12:23:56;;;;;;;39.60;24.90;;;;;;;;;;4968592;28;20208;-68
2021/10/08 12:26:22;;;;;;;35.92;21.15;;;;;;;;;;4967731;28;20497;-68
2021/10/08 12:28:52;;;;;;;35.85;24.65;;;;;;;;;;4965011;28;20038;-68
2021/10/08 12:31:19;;;;;;;35.90;23.85;;;;;;;;;;4974602;28;20026;-68
2021/10/08 12:33:48;;;;;;;39.05;23.67;;;;;;;;;;4974790;28;20031;-68
2021/10/08 12:36:15;;;;;;;38.10;23.77;;;;;;;;;;4971780;28;20110;-68
2021/10/08 12:38:50;;;;;;;36.85;23.08;;;;;;;;;;4971521;28;20034;-69
2021/10/08 12:41:21;;;;;;;37.60;24.30;;;;;;;;;;4967984;28;20030;-68
2021/10/08 12:43:47;;;;;;;38.55;23.63;;;;;;;;;;4968718;28;20058;-68
2021/10/08 12:46:20;;;;;;;35.63;21.27;;;;;;;;;;4973508;28;20019;-68
2021/10/08 12:48:57;;;;;;;34.35;21.90;;;;;;;;;;4967775;28;20031;-69
2021/10/08 12:51:23;;;;;;;40.85;25.67;;;;;;;;;;4964932;28;20077;-69
2021/10/08 12:54:09;;;;;;;33.45;21.42;;;;;;;;;;4973468;28;20058;-69
2021/10/08 12:56:35;;;;;;;32.28;20.08;;;;;;;;;;4967114;28;20035;-68
2021/10/08 12:59:01;;;;;;;36.38;22.95;;;;;;;;;;4966631;28;20034;-68
2021/10/08 13:01:27;;;;;;;38.85;23.25;;;;;;;;;;4977495;28;20031;-69
2021/10/08 13:03:55;;;;;;;42.42;25.63;;;;;;;;;;4978264;28;20038;-68
2021/10/08 13:06:21;;;;;;;37.97;23.27;;;;;;;;;;4971019;28;20054;-68
2021/10/08 13:09:08;;;;;;;42.10;25.55;;;;;;;;;;4965045;28;20069;-68
2021/10/08 13:11:38;;;;;;;44.13;26.80;;;;;;;;;;4966371;28;20472;-69
2021/10/08 13:14:04;;;;;;;38.83;25.25;;;;;;;;;;4966356;28;20035;-68
2021/10/08 13:16:31;;;;;;;42.35;24.42;;;;;;;;;;4966337;28;20033;-69
2021/10/08 13:18:58;;;;;;;38.38;24.55;;;;;;;;;;4966111;28;20023;-68
2021/10/08 13:21:25;;;;;;;38.15;23.77;;;;;;;;;;4970788;28;20527;-68
2021/10/08 13:23:52;;;;;;;34.13;22.77;;;;;;;;;;4975032;28;20505;-68
2021/10/08 13:26:19;;;;;;;36.65;24.90;;;;;;;;;;4972357;28;20023;-68
2021/10/08 13:28:46;;;;;;;41.83;26.50;;;;;;;;;;4970442;28;20034;-69
2021/10/08 13:31:12;;;;;;;39.17;24.70;;;;;;;;;;4973304;28;20034;-68
2021/10/08 13:33:40;;;;;;;39.47;24.90;;;;;;;;;;4971924;28;20031;-69
2021/10/08 13:36:06;;;;;;;37.70;23.90;;;;;;;;;;4974311;28;20031;-69
2021/10/08 13:38:32;;;;;;;36.75;22.67;;;;;;;;;;4972957;28;20536;-68
2021/10/08 13:40:59;;;;;;;38.10;22.67;;;;;;;;;;4971604;28;20405;-70
2021/10/08 13:43:26;;;;;;;33.33;21.65;;;;;;;;;;4969690;28;20189;-70
2021/10/08 13:45:52;;;;;;;33.45;22.48;;;;;;;;;;4972863;28;20027;-69
2021/10/08 13:48:18;;;;;;;34.53;21.95;;;;;;;;;;4971231;28;20089;-70
2021/10/08 13:50:47;;;;;;;35.55;21.02;;;;;;;;;;4971360;28;20042;-69
2021/10/08 13:53:14;;;;;;;36.85;22.70;;;;;;;;;;4971888;28;20043;-70
2021/10/08 13:55:40;;;;;;;38.30;22.35;;;;;;;;;;4971862;28;20038;-69
2021/10/08 13:58:08;;;;;;;36.53;21.30;;;;;;;;;;4968650;28;20113;-69
2021/10/08 14:00:37;;;;;;;39.38;24.08;;;;;;;;;;4972144;28;20019;-69
2021/10/08 14:03:23;;;;;;;46.53;25.38;;;;;;;;;;4970135;28;20034;-69
2021/10/08 14:11:20;;;;;;;33.92;20.95;;;;;;;;;;4970598;28;20449;-69
2021/10/08 14:13:46;;;;;;;35.35;21.70;;;;;;;;;;4972323;28;20027;-68
2021/10/08 14:16:12;;;;;;;35.17;21.05;;;;;;;;;;4969454;28;20027;-71
2021/10/08 14:18:38;;;;;;;33.25;21.67;;;;;;;;;;4969459;28;20102;-71
2021/10/08 14:21:04;;;;;;;34.13;23.00;;;;;;;;;;4970961;28;20107;-71
2021/10/08 14:23:30;;;;;;;34.65;22.02;;;;;;;;;;4970679;28;20042;-70
2021/10/08 14:25:56;;;;;;;41.38;24.48;;;;;;;;;;4971500;28;20093;-71